createdAt,value
2022-12-25T00:02:13.389Z,69.25
2022-12-25T00:04:41.424Z,71.50
2022-12-25T00:07:09.300Z,73.00
2022-12-25T00:09:37.218Z,70.50
2022-12-25T00:12:05.233Z,70.25
2022-12-25T00:14:34.464Z,70.75
2022-12-25T00:17:02.440Z,68.75
2022-12-25T00:19:30.351Z,68.25
2022-12-25T00:21:58.231Z,67.75
2022-12-25T00:24:26.153Z,67.25
2022-12-25T00:26:54.044Z,65.75
2022-12-25T00:29:21.918Z,65.25
2022-12-25T00:31:51.254Z,65.25
2022-12-25T00:34:19.250Z,64.00
2022-12-25T00:36:47.142Z,66.00
2022-12-25T00:39:15.032Z,62.25
2022-12-25T00:42:00.107Z,62.25
2022-12-25T00:44:28.015Z,62.25
2022-12-25T00:46:57.317Z,60.75
2022-12-25T00:49:25.298Z,61.75
2022-12-25T00:51:53.282Z,59.00
2022-12-25T00:54:21.197Z,60.50
2022-12-25T00:56:49.081Z,58.75
2022-12-25T00:59:16.960Z,59.50
2022-12-25T01:01:44.905Z,58.50
2022-12-25T01:04:14.331Z,58.50
2022-12-25T01:06:42.251Z,56.25
2022-12-25T01:09:38.821Z,55.50
2022-12-25T01:12:06.981Z,56.00
2022-12-25T01:14:34.862Z,51.00
2022-12-25T01:17:02.769Z,52.25
2022-12-25T01:37:08.263Z,47.25
2022-12-25T01:39:36.184Z,51.50
2022-12-25T01:42:04.143Z,46.25
2022-12-25T01:45:09.632Z,46.25
2022-12-25T01:47:37.497Z,42.00
2022-12-25T01:50:06.309Z,47.50
2022-12-25T01:52:35.615Z,42.50
2022-12-25T01:55:04.374Z,43.50
2022-12-25T01:57:33.473Z,45.25
2022-12-25T02:00:01.419Z,43.50
2022-12-25T02:02:29.503Z,42.25
2022-12-25T02:04:59.882Z,41.00
2022-12-25T02:07:28.616Z,36.75
2022-12-25T02:09:57.892Z,42.50
2022-12-25T02:12:26.900Z,35.75
2022-12-25T02:15:01.155Z,34.50
2022-12-25T02:17:34.071Z,38.00
2022-12-25T02:20:18.188Z,36.25
2022-12-25T02:22:51.529Z,36.75
2022-12-25T02:25:30.580Z,35.50
2022-12-25T02:28:14.451Z,32.00
2022-12-25T02:30:44.153Z,33.75
2022-12-25T02:33:32.624Z,31.50
2022-12-25T02:36:00.566Z,34.00
2022-12-25T02:38:32.639Z,33.00
2022-12-25T02:40:59.991Z,29.75
2022-12-25T02:43:48.284Z,33.50
2022-12-25T02:46:35.042Z,32.75
2022-12-25T02:49:21.817Z,27.75
2022-12-25T02:52:09.544Z,29.50
2022-12-25T02:54:55.412Z,33.75
2022-12-25T02:57:50.148Z,32.25
2022-12-25T03:00:37.121Z,26.25
2022-12-25T03:03:23.030Z,28.25
2022-12-25T03:06:08.247Z,26.75
2022-12-25T03:08:37.697Z,22.75
2022-12-25T03:11:24.705Z,24.75
2022-12-25T03:13:54.940Z,25.75
2022-12-25T03:16:41.883Z,24.00
2022-12-25T03:19:23.752Z,22.50
2022-12-25T03:22:09.085Z,23.25
2022-12-25T03:24:54.412Z,21.50
2022-12-25T03:27:22.334Z,20.00
2022-12-25T03:30:08.784Z,25.50
2022-12-25T03:32:40.108Z,21.00
2022-12-25T03:35:23.221Z,22.25
2022-12-25T03:38:13.163Z,19.25
2022-12-25T03:41:06.925Z,22.50
2022-12-25T03:43:57.710Z,21.00
2022-12-25T03:46:43.655Z,23.00
2022-12-25T03:49:33.160Z,19.75
2022-12-25T03:52:18.491Z,20.25
2022-12-25T03:55:03.761Z,17.75
2022-12-25T03:57:52.147Z,17.50
2022-12-25T04:00:37.201Z,18.75
2022-12-25T04:03:22.541Z,16.50
2022-12-25T04:06:09.412Z,17.75
2022-12-25T04:08:54.753Z,18.00
2022-12-25T04:11:39.962Z,17.75
2022-12-25T04:14:25.211Z,18.75
2022-12-25T04:17:10.497Z,16.25
2022-12-25T04:19:55.808Z,15.75
2022-12-25T04:22:43.012Z,16.00
2022-12-25T04:25:28.403Z,14.75
2022-12-25T04:28:19.665Z,15.00
2022-12-25T04:31:05.694Z,17.25
2022-12-25T04:33:52.363Z,13.00
2022-12-25T04:36:20.244Z,14.00
2022-12-25T04:38:49.495Z,14.25
2022-12-25T04:41:17.400Z,14.00
2022-12-25T04:43:45.576Z,12.00
2022-12-25T04:46:13.468Z,11.50
2022-12-25T04:48:41.401Z,16.00
2022-12-25T04:51:16.284Z,11.50
2022-12-25T04:53:44.484Z,14.50
2022-12-25T04:56:13.992Z,12.75
2022-12-25T04:58:41.850Z,13.00
2022-12-25T05:01:09.807Z,11.25
2022-12-25T05:03:38.049Z,11.00
2022-12-25T05:06:06.278Z,11.50
2022-12-25T05:08:34.690Z,11.00
2022-12-25T05:11:05.923Z,10.00
2022-12-25T05:13:35.504Z,12.50
2022-12-25T05:16:06.580Z,10.25
2022-12-25T05:18:34.546Z,10.00
2022-12-25T05:21:02.995Z,18.00
2022-12-25T05:23:31.187Z,16.50
2022-12-25T05:25:59.654Z,15.25
2022-12-25T05:28:27.544Z,19.00
2022-12-25T05:30:58.846Z,16.00
2022-12-25T05:33:27.093Z,17.00
2022-12-25T05:35:54.998Z,17.50
2022-12-25T05:38:22.893Z,21.00
2022-12-25T05:40:52.355Z,23.00
2022-12-25T05:43:20.555Z,21.75
2022-12-25T05:45:48.420Z,22.50
2022-12-25T05:48:17.690Z,20.00
2022-12-25T05:50:45.663Z,21.00
2022-12-25T05:53:14.360Z,24.00
2022-12-25T05:55:43.863Z,23.25
2022-12-25T05:58:12.107Z,24.00
2022-12-25T06:00:40.040Z,22.00
2022-12-25T06:03:08.291Z,22.75
2022-12-25T06:05:39.283Z,23.25
2022-12-25T06:08:07.578Z,21.75
2022-12-25T06:10:35.439Z,23.50
2022-12-25T06:13:03.788Z,25.25
2022-12-25T06:15:31.687Z,23.25
2022-12-25T06:18:01.475Z,27.00
2022-12-25T06:20:29.369Z,23.75
2022-12-25T06:22:58.666Z,27.00
2022-12-25T06:25:26.573Z,23.50
2022-12-25T06:27:54.518Z,21.50
2022-12-25T06:30:22.427Z,22.25
2022-12-25T06:32:50.605Z,22.25
2022-12-25T06:35:18.864Z,23.00
2022-12-25T06:37:46.873Z,21.25
2022-12-25T06:40:16.397Z,24.75
2022-12-25T06:42:44.582Z,21.50
2022-12-25T06:45:12.699Z,21.50
2022-12-25T06:47:40.579Z,20.50
2022-12-25T06:50:09.302Z,26.00
2022-12-25T06:52:37.460Z,20.50
2022-12-25T06:55:05.768Z,17.50
2022-12-25T06:57:35.244Z,20.25
2022-12-25T07:00:03.541Z,19.75
2022-12-25T07:02:31.454Z,18.00
2022-12-25T07:04:59.728Z,19.50
2022-12-25T07:07:27.585Z,19.00
2022-12-25T07:09:55.479Z,18.25
2022-12-25T07:12:24.334Z,17.50
2022-12-25T07:14:54.811Z,18.00
2022-12-25T07:17:22.758Z,15.50
2022-12-25T07:19:50.737Z,15.00
2022-12-25T07:22:18.628Z,16.00
2022-12-25T07:24:46.858Z,16.75
2022-12-25T07:27:14.779Z,16.00
2022-12-25T07:29:42.668Z,16.25
2022-12-25T07:32:12.029Z,15.00
2022-12-25T07:34:40.285Z,13.75
2022-12-25T07:37:08.271Z,16.00
2022-12-25T07:39:36.173Z,17.50
2022-12-25T07:42:04.146Z,13.50
2022-12-25T07:44:32.310Z,14.75
2022-12-25T07:47:00.249Z,12.50
2022-12-25T07:49:29.552Z,13.75
2022-12-25T07:51:57.441Z,14.00
2022-12-25T07:54:25.643Z,12.00
2022-12-25T07:56:53.604Z,13.75
2022-12-25T07:59:21.629Z,13.25
2022-12-25T08:01:50.607Z,12.00
2022-12-25T08:04:19.145Z,14.50
2022-12-25T08:06:48.538Z,13.00
2022-12-25T08:09:16.424Z,11.00
2022-12-25T08:11:46.193Z,12.25
2022-12-25T08:14:14.482Z,11.00
2022-12-25T08:16:42.429Z,11.50
2022-12-25T08:19:10.476Z,12.25
2022-12-25T08:21:38.711Z,11.00
2022-12-25T08:24:08.377Z,13.00
2022-12-25T08:26:36.266Z,13.25
2022-12-25T08:29:04.152Z,10.00
2022-12-25T08:31:33.392Z,9.50
2022-12-25T08:34:03.029Z,11.00
2022-12-25T08:36:31.064Z,10.25
2022-12-25T08:39:03.038Z,11.50
2022-12-25T08:41:32.846Z,10.75
2022-12-25T08:44:01.006Z,9.50
2022-12-25T08:46:28.980Z,10.25
2022-12-25T08:48:57.580Z,11.00
2022-12-25T08:51:26.224Z,10.50
2022-12-25T08:53:54.805Z,9.75
2022-12-25T08:56:22.845Z,9.00
2022-12-25T08:58:52.137Z,9.00
2022-12-25T09:01:20.214Z,10.00
2022-12-25T09:03:48.648Z,8.25
2022-12-25T09:06:17.067Z,10.50
2022-12-25T09:08:49.116Z,12.00
2022-12-25T09:11:18.101Z,14.00
2022-12-25T09:13:46.232Z,14.25
2022-12-25T09:16:16.721Z,16.75
2022-12-25T09:18:44.673Z,14.00
2022-12-25T09:21:13.509Z,17.50
2022-12-25T09:23:41.735Z,18.50
2022-12-25T09:26:11.364Z,15.75
2022-12-25T09:28:39.214Z,15.00
2022-12-25T09:31:07.438Z,13.00
2022-12-25T09:33:37.079Z,13.25
2022-12-25T09:36:06.695Z,14.25
2022-12-25T09:38:35.148Z,13.25
2022-12-25T09:41:03.807Z,14.00
2022-12-25T09:43:34.630Z,13.25
2022-12-25T09:46:02.533Z,11.75
2022-12-25T09:48:30.775Z,13.00
2022-12-25T09:51:02.539Z,15.75
2022-12-25T09:53:33.531Z,11.50
2022-12-25T09:56:05.227Z,12.50
2022-12-25T09:58:33.167Z,13.50
2022-12-25T10:01:09.489Z,12.00
2022-12-25T10:03:48.955Z,13.50
2022-12-25T10:06:20.103Z,11.00
2022-12-25T10:09:17.563Z,11.25
2022-12-25T10:11:56.689Z,12.75
2022-12-25T10:14:28.134Z,12.50
2022-12-25T10:17:02.568Z,11.75
2022-12-25T10:19:38.634Z,15.00
2022-12-25T10:22:12.791Z,12.25
2022-12-25T10:24:44.046Z,11.25
2022-12-25T10:27:14.979Z,13.25
2022-12-25T10:29:42.905Z,11.00
2022-12-25T10:32:10.827Z,11.00
2022-12-25T10:34:39.272Z,10.25
2022-12-25T10:37:07.205Z,9.00
2022-12-25T10:39:39.705Z,9.25
2022-12-25T10:42:22.733Z,8.75
2022-12-25T10:44:58.161Z,10.50
2022-12-25T10:47:27.180Z,10.00
2022-12-25T10:49:55.038Z,10.25
2022-12-25T10:52:24.033Z,8.75
2022-12-25T10:54:53.735Z,10.00
2022-12-25T10:57:22.730Z,10.50
2022-12-25T10:59:51.572Z,11.25
2022-12-25T11:02:22.714Z,10.50
2022-12-25T11:04:51.067Z,10.50
2022-12-25T11:07:23.883Z,9.25
2022-12-25T11:09:55.447Z,8.00
2022-12-25T11:12:28.349Z,8.75
2022-12-25T11:14:58.052Z,9.25
2022-12-25T11:17:26.599Z,6.50
2022-12-25T11:19:55.115Z,9.00
2022-12-25T11:22:23.152Z,8.00
2022-12-25T11:24:52.913Z,9.00
2022-12-25T11:27:23.558Z,8.00
2022-12-25T11:29:52.390Z,7.75
2022-12-25T11:32:21.938Z,6.00
2022-12-25T11:34:50.215Z,6.50
2022-12-25T11:37:20.166Z,7.75
2022-12-25T11:39:48.086Z,8.25
2022-12-25T11:42:19.385Z,7.50
2022-12-25T11:44:50.841Z,5.50
2022-12-25T11:47:20.590Z,7.00
2022-12-25T11:49:52.175Z,7.25
2022-12-25T11:52:22.836Z,6.50
2022-12-25T11:54:54.611Z,5.50
2022-12-25T11:57:24.398Z,6.00
2022-12-25T11:59:55.949Z,6.75
2022-12-25T12:02:28.272Z,7.00
2022-12-25T12:05:02.936Z,6.25
2022-12-25T12:07:31.344Z,6.00
2022-12-25T12:10:01.884Z,6.75
2022-12-25T12:12:34.468Z,7.00
2022-12-25T12:15:08.632Z,6.00
2022-12-25T12:17:36.599Z,6.25
2022-12-25T12:20:12.930Z,5.50
2022-12-25T12:22:40.846Z,5.00
2022-12-25T12:25:09.495Z,6.25
2022-12-25T12:27:39.581Z,5.00
2022-12-25T12:30:09.807Z,9.00
2022-12-25T12:32:40.297Z,6.25
2022-12-25T12:35:17.211Z,7.00
2022-12-25T12:37:45.958Z,6.75
2022-12-25T12:40:26.534Z,6.00
2022-12-25T12:42:55.785Z,5.00
2022-12-25T12:45:26.495Z,5.00
2022-12-25T12:47:54.686Z,5.00
2022-12-25T12:50:30.805Z,5.50
2022-12-25T12:52:59.194Z,5.75
2022-12-25T12:55:31.223Z,4.25
2022-12-25T12:58:01.375Z,7.00
2022-12-25T13:00:34.013Z,5.25
2022-12-25T13:03:20.318Z,6.50
2022-12-25T13:05:50.006Z,4.50
2022-12-25T13:08:27.263Z,6.00
2022-12-25T13:11:06.848Z,5.00
2022-12-25T13:13:37.167Z,5.50
2022-12-25T13:16:05.347Z,6.00
2022-12-25T13:18:33.383Z,5.00
2022-12-25T13:21:02.090Z,4.50
2022-12-25T13:23:32.384Z,5.00
2022-12-25T13:26:01.199Z,4.50
2022-12-25T13:28:29.841Z,5.00
2022-12-25T13:31:06.954Z,6.50
2022-12-25T13:33:35.265Z,5.50
2022-12-25T13:36:04.238Z,5.00
2022-12-25T13:38:32.215Z,5.00
2022-12-25T13:41:17.778Z,5.00
2022-12-25T13:43:45.729Z,5.75
2022-12-25T13:46:15.501Z,5.00
2022-12-25T13:48:43.694Z,5.00
2022-12-25T13:51:15.730Z,5.00
2022-12-25T13:53:44.257Z,6.00
2022-12-25T13:56:14.735Z,5.00
2022-12-25T13:58:42.647Z,5.50
2022-12-25T14:01:11.764Z,4.00
2022-12-25T14:03:43.655Z,4.00
2022-12-25T14:06:18.642Z,5.00
2022-12-25T14:08:46.563Z,5.00
2022-12-25T14:11:16.086Z,5.50
2022-12-25T14:13:44.846Z,4.25
2022-12-25T14:16:12.759Z,4.00
2022-12-25T14:18:53.101Z,4.75
2022-12-25T14:21:30.065Z,5.00
2022-12-25T14:24:00.011Z,4.00
2022-12-25T14:26:29.282Z,3.50
2022-12-25T14:29:02.901Z,4.00
2022-12-25T14:31:30.815Z,5.00
2022-12-25T14:34:00.759Z,4.00
2022-12-25T14:36:28.790Z,5.00
2022-12-25T14:38:58.573Z,5.00
2022-12-25T14:41:38.388Z,6.00
2022-12-25T14:44:10.815Z,5.00
2022-12-25T14:46:40.332Z,6.00
2022-12-25T14:49:25.875Z,5.00
2022-12-25T14:51:55.277Z,5.50
2022-12-25T14:54:25.816Z,5.00
2022-12-25T14:56:56.115Z,5.00
2022-12-25T14:59:26.288Z,5.25
2022-12-25T15:01:59.456Z,6.75
2022-12-25T15:04:31.505Z,6.00
2022-12-25T15:07:00.626Z,5.00
2022-12-25T15:09:31.135Z,6.25
2022-12-25T15:11:59.315Z,5.75
2022-12-25T15:14:30.106Z,6.00
2022-12-25T15:16:58.860Z,7.75
2022-12-25T15:19:36.592Z,5.00
2022-12-25T15:22:06.338Z,5.00
2022-12-25T15:24:34.683Z,7.25
2022-12-25T15:27:02.563Z,7.00
2022-12-25T15:30:08.700Z,6.75
2022-12-25T15:32:27.446Z,7.75
2022-12-25T15:34:58.349Z,8.25
2022-12-25T15:37:26.858Z,8.00
2022-12-25T15:39:57.387Z,8.00
2022-12-25T15:42:25.794Z,7.50
2022-12-25T15:44:54.031Z,8.00
2022-12-25T15:47:23.240Z,9.75
2022-12-25T15:49:52.500Z,8.00
2022-12-25T15:52:21.836Z,7.75
2022-12-25T15:54:52.193Z,7.00
2022-12-25T15:57:21.677Z,7.25
2022-12-25T15:59:54.410Z,7.00
2022-12-25T16:02:29.677Z,7.00
2022-12-25T16:04:57.671Z,9.25
2022-12-25T16:07:27.752Z,8.75
2022-12-25T16:09:55.593Z,8.75
2022-12-25T16:12:53.162Z,10.50
2022-12-25T16:15:22.613Z,9.25
2022-12-25T16:17:50.992Z,10.50
2022-12-25T16:20:18.888Z,10.00
2022-12-25T16:22:49.261Z,9.50
2022-12-25T16:25:18.664Z,10.25
2022-12-25T16:27:47.035Z,9.00
2022-12-25T16:30:19.008Z,8.50
2022-12-25T16:32:52.761Z,10.00
2022-12-25T16:35:21.241Z,8.50
2022-12-25T16:37:50.548Z,10.75
2022-12-25T16:40:18.457Z,10.00
2022-12-25T16:42:58.863Z,8.25
2022-12-25T16:45:26.743Z,10.75
2022-12-25T16:47:55.061Z,9.25
2022-12-25T16:50:23.156Z,8.00
2022-12-25T16:52:54.039Z,8.00
2022-12-25T16:55:29.867Z,8.50
2022-12-25T16:57:58.605Z,8.50
2022-12-25T17:00:29.734Z,9.50
2022-12-25T17:02:59.199Z,8.25
2022-12-25T17:05:28.262Z,9.00
2022-12-25T17:08:00.434Z,9.50
2022-12-25T17:10:28.344Z,9.50
2022-12-25T17:12:56.241Z,8.25
2022-12-25T17:15:24.141Z,9.00
2022-12-25T17:17:52.016Z,10.25
2022-12-25T17:20:25.128Z,9.00
2022-12-25T17:23:00.449Z,8.25
2022-12-25T17:25:29.725Z,8.50
2022-12-25T17:27:59.702Z,9.00
2022-12-25T17:30:27.579Z,9.75
2022-12-25T17:33:00.167Z,8.00
2022-12-25T17:35:34.023Z,9.25
2022-12-25T17:38:10.249Z,8.00
2022-12-25T17:40:40.672Z,9.25
2022-12-25T17:43:08.567Z,10.00
2022-12-25T17:45:37.766Z,8.50
2022-12-25T17:48:06.586Z,7.00
2022-12-25T17:50:40.873Z,8.50
2022-12-25T17:53:09.245Z,8.00
2022-12-25T17:55:41.181Z,9.25
2022-12-25T17:58:10.166Z,8.00
2022-12-25T18:00:38.152Z,9.00
2022-12-25T18:03:11.700Z,9.00
2022-12-25T18:05:40.566Z,9.00
2022-12-25T18:08:08.448Z,8.50
2022-12-25T18:10:37.800Z,8.25
2022-12-25T18:13:07.182Z,8.75
2022-12-25T18:15:37.640Z,8.50
2022-12-25T18:18:05.991Z,7.25
2022-12-25T18:20:39.568Z,7.00
2022-12-25T18:23:08.235Z,7.25
2022-12-25T18:25:40.704Z,9.25
2022-12-25T18:28:11.074Z,7.00
2022-12-25T18:30:40.988Z,9.00
2022-12-25T18:33:08.876Z,8.75
2022-12-25T18:35:39.064Z,8.50
2022-12-25T18:38:06.983Z,7.25
2022-12-25T18:40:34.923Z,8.00
2022-12-25T18:43:03.671Z,8.25
2022-12-25T18:45:33.501Z,8.00
2022-12-25T18:48:03.225Z,7.75
2022-12-25T18:50:31.106Z,7.00
2022-12-25T18:52:58.989Z,8.50
2022-12-25T18:55:27.290Z,6.50
2022-12-25T18:57:55.178Z,7.50
2022-12-25T19:00:23.298Z,7.25
2022-12-25T19:02:53.211Z,8.00
2022-12-25T19:05:21.677Z,7.75
2022-12-25T19:07:49.562Z,6.50
2022-12-25T19:10:17.508Z,8.00
2022-12-25T19:12:45.416Z,8.75
2022-12-25T19:15:13.570Z,8.25
2022-12-25T19:17:41.566Z,7.00
2022-12-25T19:20:12.329Z,7.00
2022-12-25T19:22:40.176Z,9.00
2022-12-25T19:25:09.479Z,8.00
2022-12-25T19:27:37.348Z,7.75
2022-12-25T19:30:07.581Z,8.00
2022-12-25T19:32:51.042Z,7.00
2022-12-25T19:35:27.608Z,9.00
2022-12-25T19:37:55.586Z,8.00
2022-12-25T19:40:26.598Z,7.00
2022-12-25T19:42:54.500Z,7.00
2022-12-25T19:45:26.074Z,7.00
2022-12-25T19:47:56.528Z,7.25
2022-12-25T19:50:28.460Z,8.00
2022-12-25T19:52:56.386Z,7.50
2022-12-25T19:55:24.602Z,7.00
2022-12-25T19:57:52.586Z,7.25
2022-12-25T20:00:20.718Z,8.00
2022-12-25T20:02:48.730Z,7.00
2022-12-25T20:05:17.160Z,7.00
2022-12-25T20:07:48.919Z,7.75
2022-12-25T20:10:19.188Z,7.00
2022-12-25T20:12:47.561Z,6.75
2022-12-25T20:15:18.588Z,6.75
2022-12-25T20:17:47.633Z,6.75
2022-12-25T20:20:15.574Z,6.50
2022-12-25T20:22:46.101Z,7.25
2022-12-25T20:25:17.797Z,7.75
2022-12-25T20:27:46.030Z,7.75
2022-12-25T20:30:15.545Z,7.00
2022-12-25T20:32:50.402Z,7.00
2022-12-25T20:35:20.118Z,7.00
2022-12-25T20:37:49.453Z,7.00
2022-12-25T20:40:17.492Z,6.00
2022-12-25T20:42:45.841Z,8.00
2022-12-25T20:45:18.931Z,7.00
2022-12-25T20:47:49.995Z,7.25
2022-12-25T20:50:19.940Z,6.75
2022-12-25T20:52:49.216Z,7.00
2022-12-25T20:55:17.482Z,7.00
2022-12-25T20:57:45.362Z,6.00
2022-12-25T21:00:14.585Z,7.00
2022-12-25T21:02:43.146Z,7.00
2022-12-25T21:05:12.471Z,5.75
2022-12-25T21:07:40.393Z,7.00
2022-12-25T21:10:10.561Z,6.00
2022-12-25T21:12:38.472Z,5.75
2022-12-25T21:15:14.939Z,5.00
2022-12-25T21:17:43.490Z,7.50
2022-12-25T21:20:12.104Z,5.50
2022-12-25T21:22:39.989Z,6.00
2022-12-25T21:25:10.341Z,5.75
2022-12-25T21:27:38.236Z,6.00
2022-12-25T21:30:17.651Z,5.75
2022-12-25T21:33:02.853Z,7.00
2022-12-25T21:35:30.764Z,6.50
2022-12-25T21:37:58.682Z,7.00
2022-12-25T21:40:28.078Z,5.00
2022-12-25T21:42:55.934Z,6.25
2022-12-25T21:45:24.051Z,6.25
2022-12-25T21:48:01.830Z,6.25
2022-12-25T21:50:48.621Z,6.00
2022-12-25T21:53:16.883Z,5.50
2022-12-25T21:55:55.952Z,5.25
2022-12-25T21:58:23.949Z,5.00
2022-12-25T22:00:52.047Z,5.25
2022-12-25T22:03:20.103Z,6.00
2022-12-25T22:06:05.868Z,5.25
2022-12-25T22:08:33.828Z,6.00
2022-12-25T22:11:05.052Z,7.00
2022-12-25T22:13:50.855Z,6.00
2022-12-25T22:16:36.293Z,7.00
2022-12-25T22:19:21.387Z,5.50
2022-12-25T22:21:49.267Z,6.50
2022-12-25T22:24:17.221Z,5.00
2022-12-25T22:26:46.799Z,6.50
2022-12-25T22:29:14.663Z,5.00
2022-12-25T22:31:46.712Z,6.00
2022-12-25T22:34:16.378Z,5.75
2022-12-25T22:36:44.352Z,6.00
2022-12-25T22:39:12.225Z,6.75
2022-12-25T22:41:40.130Z,6.00
2022-12-25T22:44:18.086Z,5.50
2022-12-25T22:46:46.729Z,5.00
2022-12-25T22:49:15.907Z,5.00
2022-12-25T22:51:43.884Z,6.00
2022-12-25T22:54:13.172Z,5.00
2022-12-25T22:56:41.310Z,4.00
2022-12-25T22:59:10.603Z,5.00
2022-12-25T23:01:38.661Z,5.75
2022-12-25T23:04:07.288Z,5.00
2022-12-25T23:06:35.548Z,5.00
2022-12-25T23:09:03.471Z,5.00
2022-12-25T23:11:31.473Z,4.00
2022-12-25T23:14:17.136Z,6.00
2022-12-25T23:16:46.428Z,5.75
2022-12-25T23:19:32.208Z,6.00
2022-12-25T23:22:22.883Z,5.00
2022-12-25T23:25:08.325Z,4.50
2022-12-25T23:27:38.540Z,5.00
2022-12-25T23:30:08.865Z,5.75
2022-12-25T23:32:38.184Z,4.00
2022-12-25T23:35:07.416Z,6.00
2022-12-25T23:37:35.534Z,6.25
2022-12-25T23:40:03.454Z,8.25
2022-12-25T23:42:31.328Z,6.75
2022-12-25T23:44:59.484Z,10.25
2022-12-25T23:47:27.489Z,10.25
2022-12-25T23:49:56.779Z,11.00
2022-12-25T23:52:25.010Z,11.00
2022-12-25T23:54:53.262Z,12.50
2022-12-25T23:57:21.122Z,10.25
2022-12-25T23:59:49.142Z,13.50
